createdAt,value
2022-08-27T00:00:12.420Z,95297
2022-08-27T00:01:21.102Z,95294
2022-08-27T00:02:30.755Z,95293
2022-08-27T00:03:38.411Z,95293
2022-08-27T00:04:47.207Z,95292
2022-08-27T00:05:55.871Z,95289
2022-08-27T00:07:04.512Z,95288
2022-08-27T00:08:14.182Z,95292
2022-08-27T00:09:26.711Z,95287
2022-08-27T00:10:32.498Z,95284
2022-08-27T00:11:42.183Z,95284
2022-08-27T00:12:49.857Z,95289
2022-08-27T00:13:58.524Z,95287
2022-08-27T00:15:07.188Z,95291
2022-08-27T00:16:16.881Z,95295
2022-08-27T00:17:26.527Z,95291
2022-08-27T00:18:34.187Z,95289
2022-08-27T00:19:42.826Z,95293
2022-08-27T00:20:52.509Z,95296
2022-08-27T00:22:00.216Z,95294
2022-08-27T00:23:08.904Z,95295
2022-08-27T00:24:17.574Z,95300
2022-08-27T00:25:27.246Z,95299
2022-08-27T00:26:40.211Z,95298
2022-08-27T00:27:46.601Z,95303
2022-08-27T00:28:56.275Z,95302
2022-08-27T00:30:05.955Z,95301
2022-08-27T00:31:15.691Z,95306
2022-08-27T00:32:25.283Z,95302
2022-08-27T00:33:33.975Z,95304
2022-08-27T00:34:42.630Z,95302
2022-08-27T00:35:52.304Z,95302
2022-08-27T00:36:59.959Z,95303
2022-08-27T00:38:08.618Z,95306
2022-08-27T00:39:18.378Z,95315
2022-08-27T00:40:26.074Z,95322
2022-08-27T00:41:34.726Z,95322
2022-08-27T00:42:44.376Z,95321
2022-08-27T00:43:53.028Z,95320
2022-08-27T00:45:02.713Z,95314
2022-08-27T00:46:11.460Z,95317
2022-08-27T00:47:20.059Z,95318
2022-08-27T00:48:29.796Z,95322
2022-08-27T00:49:38.468Z,95316
2022-08-27T00:50:48.147Z,95317
2022-08-27T00:51:56.810Z,95311
2022-08-27T00:53:05.470Z,95314
2022-08-27T00:54:16.076Z,95314
2022-08-27T00:55:24.821Z,95312
2022-08-27T00:56:33.499Z,95311
2022-08-27T00:57:43.182Z,95319
2022-08-27T00:58:51.873Z,95311
2022-08-27T01:00:01.556Z,95311
2022-08-27T01:01:10.237Z,95313
2022-08-27T01:02:20.044Z,95311
2022-08-27T01:03:29.634Z,95306
2022-08-27T01:04:37.289Z,95308
2022-08-27T01:05:46.956Z,95304
2022-08-27T01:06:56.630Z,95302
2022-08-27T01:08:04.449Z,95301
2022-08-27T01:09:13.100Z,95307
2022-08-27T01:10:21.751Z,95309
2022-08-27T01:11:30.402Z,95308
2022-08-27T01:12:40.057Z,95307
2022-08-27T01:13:59.455Z,95307
2022-08-27T01:14:58.364Z,95302
2022-08-27T01:16:08.067Z,95299
2022-08-27T01:17:15.683Z,95302
2022-08-27T01:18:23.364Z,95292
2022-08-27T01:19:32.064Z,95298
2022-08-27T01:20:40.720Z,95293
2022-08-27T01:21:50.393Z,95298
2022-08-27T01:22:58.039Z,95295
2022-08-27T01:24:06.701Z,95297
2022-08-27T01:25:16.427Z,95294
2022-08-27T01:26:25.108Z,95294
2022-08-27T01:27:34.819Z,95295
2022-08-27T01:28:43.481Z,95294
2022-08-27T01:29:52.175Z,95291
2022-08-27T01:31:01.993Z,95289
2022-08-27T01:32:09.643Z,95291
2022-08-27T01:33:18.309Z,95293
2022-08-27T01:34:27.983Z,95297
2022-08-27T01:35:35.648Z,95295
2022-08-27T01:36:44.293Z,95294
2022-08-27T01:37:53.994Z,95294
2022-08-27T01:39:02.597Z,95298
2022-08-27T01:40:13.547Z,95305
2022-08-27T01:41:22.936Z,95311
2022-08-27T01:42:32.619Z,95305
2022-08-27T01:43:42.270Z,95302
2022-08-27T01:44:50.923Z,95301
2022-08-27T01:45:59.571Z,95302
2022-08-27T01:47:09.269Z,95299
2022-08-27T01:48:18.966Z,95296
2022-08-27T01:49:28.679Z,95304
2022-08-27T01:50:37.350Z,95297
2022-08-27T01:51:46.035Z,95300
2022-08-27T01:52:55.691Z,95300
2022-08-27T01:54:03.390Z,95307
2022-08-27T01:55:13.058Z,95301
2022-08-27T01:56:20.696Z,95302
2022-08-27T01:57:29.413Z,95302
2022-08-27T01:58:39.088Z,95305
2022-08-27T01:59:47.867Z,95301
2022-08-27T02:00:57.578Z,95300
2022-08-27T02:02:05.295Z,95299
2022-08-27T02:03:14.906Z,95299
2022-08-27T02:04:23.553Z,95301
2022-08-27T02:05:33.235Z,95303
2022-08-27T02:06:42.893Z,95298
2022-08-27T02:07:51.575Z,95303
2022-08-27T02:09:00.286Z,95306
2022-08-27T02:10:09.966Z,95301
2022-08-27T02:11:18.747Z,95302
2022-08-27T02:12:27.406Z,95301
2022-08-27T02:13:37.061Z,95298
2022-08-27T02:14:44.735Z,95301
2022-08-27T02:15:54.507Z,95299
2022-08-27T02:17:03.175Z,95294
2022-08-27T02:18:12.134Z,95298
2022-08-27T02:19:21.511Z,95292
2022-08-27T02:20:30.156Z,95291
2022-08-27T02:21:39.818Z,95289
2022-08-27T02:22:49.579Z,95290
2022-08-27T02:23:58.257Z,95289
2022-08-27T02:25:10.286Z,95288
2022-08-27T02:26:17.607Z,95287
2022-08-27T02:27:26.284Z,95286
2022-08-27T02:28:36.016Z,95290
2022-08-27T02:29:43.658Z,95287
2022-08-27T02:30:52.297Z,95285
2022-08-27T02:32:01.975Z,95283
2022-08-27T02:33:11.631Z,95283
2022-08-27T02:34:20.418Z,95277
2022-08-27T02:35:29.081Z,95279
2022-08-27T02:36:38.742Z,95277
2022-08-27T02:37:48.420Z,95277
2022-08-27T02:38:56.076Z,95277
2022-08-27T02:40:04.813Z,95273
2022-08-27T02:41:14.426Z,95274
2022-08-27T02:42:22.091Z,95273
2022-08-27T02:43:30.762Z,95276
2022-08-27T02:44:39.428Z,95271
2022-08-27T02:45:48.098Z,95273
2022-08-27T02:46:57.872Z,95272
2022-08-27T02:48:06.481Z,95272
2022-08-27T02:49:15.153Z,95275
2022-08-27T02:50:26.937Z,95272
2022-08-27T02:51:33.543Z,95275
2022-08-27T02:52:42.177Z,95276
2022-08-27T02:53:50.844Z,95277
2022-08-27T02:55:00.515Z,95272
2022-08-27T02:56:10.176Z,95274
2022-08-27T02:57:18.854Z,95274
2022-08-27T02:58:27.515Z,95279
2022-08-27T02:59:38.178Z,95281
2022-08-27T03:00:45.853Z,95279
2022-08-27T03:01:54.622Z,95276
2022-08-27T03:03:04.273Z,95279
2022-08-27T03:04:12.874Z,95279
2022-08-27T03:05:22.536Z,95282
2022-08-27T03:06:31.204Z,95277
2022-08-27T03:07:38.863Z,95278
2022-08-27T03:08:52.524Z,95276
2022-08-27T03:09:57.212Z,95279
2022-08-27T03:11:06.876Z,95279
2022-08-27T03:12:15.525Z,95278
2022-08-27T03:13:25.202Z,95282
2022-08-27T03:14:35.034Z,95281
2022-08-27T03:15:42.709Z,95283
2022-08-27T03:16:51.351Z,95285
2022-08-27T03:18:01.032Z,95283
2022-08-27T03:19:10.691Z,95287
2022-08-27T03:20:20.424Z,95283
2022-08-27T03:21:29.099Z,95282
2022-08-27T03:22:37.748Z,95284
2022-08-27T03:23:47.430Z,95281
2022-08-27T03:24:56.102Z,95285
2022-08-27T03:26:05.814Z,95282
2022-08-27T03:27:15.488Z,95284
2022-08-27T03:28:24.265Z,95284
2022-08-27T03:29:33.848Z,95283
2022-08-27T03:30:43.513Z,95287
2022-08-27T03:31:52.184Z,95285
2022-08-27T03:33:01.864Z,95286
2022-08-27T03:34:10.536Z,95294
2022-08-27T03:35:19.219Z,95289
2022-08-27T03:36:28.888Z,95293
2022-08-27T03:37:36.752Z,95290
2022-08-27T03:38:45.424Z,95292
2022-08-27T03:39:54.136Z,95290
2022-08-27T03:41:02.767Z,95291
2022-08-27T03:42:12.444Z,95292
2022-08-27T03:43:21.129Z,95296
2022-08-27T03:44:29.821Z,95296
2022-08-27T03:45:48.546Z,95296
2022-08-27T03:46:49.126Z,95294
2022-08-27T03:47:57.777Z,95289
2022-08-27T03:49:07.479Z,95294
2022-08-27T03:50:16.219Z,95292
2022-08-27T03:51:24.902Z,95287
2022-08-27T03:52:33.563Z,95287
2022-08-27T03:53:43.249Z,95285
2022-08-27T03:54:50.929Z,95288
2022-08-27T03:56:00.589Z,95286
2022-08-27T03:57:10.299Z,95286
2022-08-27T03:58:18.961Z,95285
2022-08-27T03:59:27.639Z,95284
2022-08-27T04:00:36.344Z,95285
2022-08-27T04:01:45.082Z,95283
2022-08-27T04:02:54.710Z,95285
2022-08-27T04:04:03.372Z,95281
2022-08-27T04:05:12.039Z,95283
2022-08-27T04:06:21.733Z,95286
2022-08-27T04:07:30.395Z,95286
2022-08-27T04:08:39.064Z,95284
2022-08-27T04:09:48.713Z,95284
2022-08-27T04:10:57.396Z,95285
2022-08-27T04:12:06.108Z,95282
2022-08-27T04:13:14.777Z,95284
2022-08-27T04:14:26.124Z,95284
2022-08-27T04:15:34.095Z,95285
2022-08-27T04:16:43.746Z,95285
2022-08-27T04:17:53.468Z,95285
2022-08-27T04:19:02.532Z,95285
2022-08-27T04:20:33.774Z,95282
2022-08-27T04:21:22.894Z,95288
2022-08-27T04:22:29.552Z,95287
2022-08-27T04:23:38.259Z,95285
2022-08-27T04:24:47.957Z,95295
2022-08-27T04:25:55.615Z,95291
2022-08-27T04:27:04.291Z,95294
2022-08-27T04:28:13.959Z,95297
2022-08-27T04:29:22.619Z,95298
2022-08-27T04:30:32.304Z,95295
2022-08-27T04:31:40.010Z,95296
2022-08-27T04:32:48.650Z,95296
2022-08-27T04:33:58.335Z,95293
2022-08-27T04:35:06.013Z,95298
2022-08-27T04:36:15.663Z,95296
2022-08-27T04:37:25.332Z,95297
2022-08-27T04:38:33.976Z,95299
2022-08-27T04:39:45.710Z,95302
2022-08-27T04:40:53.416Z,95301
2022-08-27T04:42:02.061Z,95298
2022-08-27T04:43:10.733Z,95299
2022-08-27T04:44:20.367Z,95301
2022-08-27T04:45:30.045Z,95298
2022-08-27T04:46:38.820Z,95301
2022-08-27T04:47:49.413Z,95299
2022-08-27T04:48:59.091Z,95297
2022-08-27T04:50:07.838Z,95300
2022-08-27T04:51:17.438Z,95300
2022-08-27T04:52:27.077Z,95298
2022-08-27T04:53:34.741Z,95301
2022-08-27T04:54:42.398Z,95303
2022-08-27T04:55:52.075Z,95304
2022-08-27T04:57:00.728Z,95304
2022-08-27T04:58:10.564Z,95307
2022-08-27T04:59:19.101Z,95311
2022-08-27T05:00:27.777Z,95310
2022-08-27T05:01:37.485Z,95313
2022-08-27T05:02:46.082Z,95311
2022-08-27T05:03:55.782Z,95315
2022-08-27T05:05:04.516Z,95312
2022-08-27T05:06:15.089Z,95318
2022-08-27T05:07:24.812Z,95320
2022-08-27T05:08:32.464Z,95317
2022-08-27T05:09:41.175Z,95318
2022-08-27T05:10:51.896Z,95315
2022-08-27T05:12:00.574Z,95316
2022-08-27T05:13:09.246Z,95316
2022-08-27T05:14:17.928Z,95314
2022-08-27T05:15:26.602Z,95319
2022-08-27T05:16:36.284Z,95314
2022-08-27T05:17:44.934Z,95310
2022-08-27T05:18:53.577Z,95317
2022-08-27T05:20:03.276Z,95311
2022-08-27T05:21:11.961Z,95312
2022-08-27T05:22:20.615Z,95313
2022-08-27T05:23:29.277Z,95310
2022-08-27T05:24:39.919Z,95310
2022-08-27T05:25:50.566Z,95311
2022-08-27T05:26:58.251Z,95308
2022-08-27T05:28:06.994Z,95307
2022-08-27T05:29:16.601Z,95307
2022-08-27T05:30:24.318Z,95306
2022-08-27T05:31:33.032Z,95307
2022-08-27T05:32:41.719Z,95305
2022-08-27T05:33:50.384Z,95304
2022-08-27T05:35:01.036Z,95303
2022-08-27T05:36:08.691Z,95307
2022-08-27T05:37:17.365Z,95303
2022-08-27T05:38:27.068Z,95301
2022-08-27T05:39:35.791Z,95307
2022-08-27T05:40:44.446Z,95301
2022-08-27T05:41:53.127Z,95305
2022-08-27T05:43:01.910Z,95304
2022-08-27T05:44:39.384Z,95304
2022-08-27T05:45:22.370Z,95303
2022-08-27T05:46:31.040Z,95309
2022-08-27T05:47:44.486Z,95308
2022-08-27T05:48:49.339Z,95309
2022-08-27T05:49:59.039Z,95310
2022-08-27T05:51:08.686Z,95314
2022-08-27T05:52:19.401Z,95307
2022-08-27T05:53:29.054Z,95311
2022-08-27T05:54:37.716Z,95310
2022-08-27T05:55:47.413Z,95311
2022-08-27T05:56:55.065Z,95314
2022-08-27T05:58:03.757Z,95309
2022-08-27T05:59:13.386Z,95317
2022-08-27T06:00:23.073Z,95313
2022-08-27T06:01:31.795Z,95313
2022-08-27T06:02:41.484Z,95317
2022-08-27T06:03:50.099Z,95315
2022-08-27T06:04:59.830Z,95318
2022-08-27T06:06:09.447Z,95317
2022-08-27T06:07:18.134Z,95317
2022-08-27T06:08:27.819Z,95313
2022-08-27T06:09:35.485Z,95316
2022-08-27T06:10:44.150Z,95317
2022-08-27T06:11:52.818Z,95318
2022-08-27T06:13:01.479Z,95315
2022-08-27T06:14:11.151Z,95318
2022-08-27T06:15:18.824Z,95318
2022-08-27T06:16:27.491Z,95313
2022-08-27T06:17:37.194Z,95314
2022-08-27T06:18:44.857Z,95313
2022-08-27T06:19:53.528Z,95311
2022-08-27T06:21:02.182Z,95313
2022-08-27T06:22:11.087Z,95317
2022-08-27T06:23:20.501Z,95317
2022-08-27T06:24:31.274Z,95318
2022-08-27T06:25:40.975Z,95316
2022-08-27T06:26:50.688Z,95311
2022-08-27T06:27:59.376Z,95312
2022-08-27T06:29:09.026Z,95315
2022-08-27T06:30:18.719Z,95314
2022-08-27T06:31:27.450Z,95311
2022-08-27T06:32:37.053Z,95314
2022-08-27T06:33:44.719Z,95315
2022-08-27T06:34:53.371Z,95320
2022-08-27T06:36:04.056Z,95317
2022-08-27T06:37:11.735Z,95317
2022-08-27T06:38:20.389Z,95317
2022-08-27T06:39:30.849Z,95319
2022-08-27T06:40:38.708Z,95320
2022-08-27T06:41:48.409Z,95322
2022-08-27T06:42:57.073Z,95323
2022-08-27T06:44:05.776Z,95318
2022-08-27T06:45:15.463Z,95326
2022-08-27T06:46:24.169Z,95322
2022-08-27T06:47:33.017Z,95324
2022-08-27T06:48:41.690Z,95318
2022-08-27T06:49:50.338Z,95321
2022-08-27T06:51:00.006Z,95317
2022-08-27T06:52:07.688Z,95316
2022-08-27T06:53:17.407Z,95318
2022-08-27T06:54:27.034Z,95320
2022-08-27T06:55:37.238Z,95319
2022-08-27T06:56:44.359Z,95323
2022-08-27T06:57:53.018Z,95323
2022-08-27T06:59:01.694Z,95317
2022-08-27T07:00:12.355Z,95316
2022-08-27T07:01:20.046Z,95319
2022-08-27T07:02:28.677Z,95320
2022-08-27T07:03:38.353Z,95323
2022-08-27T07:04:47.096Z,95319
2022-08-27T07:05:56.746Z,95323
2022-08-27T07:07:05.423Z,95326
2022-08-27T07:08:15.077Z,95327
2022-08-27T07:09:24.737Z,95325
2022-08-27T07:10:32.413Z,95328
2022-08-27T07:11:41.070Z,95324
2022-08-27T07:12:50.747Z,95327
2022-08-27T07:13:58.420Z,95327
2022-08-27T07:15:07.079Z,95325
2022-08-27T07:16:15.912Z,95329
2022-08-27T07:17:25.512Z,95324
2022-08-27T07:18:35.190Z,95330
2022-08-27T07:19:44.829Z,95328
2022-08-27T07:20:53.584Z,95328
2022-08-27T07:22:03.374Z,95325
2022-08-27T07:23:11.246Z,95328
2022-08-27T07:24:19.703Z,95327
2022-08-27T07:25:28.407Z,95330
2022-08-27T07:26:37.064Z,95329
2022-08-27T07:27:46.869Z,95328
2022-08-27T07:28:55.565Z,95329
2022-08-27T07:30:04.234Z,95331
2022-08-27T07:31:13.955Z,95332
2022-08-27T07:32:22.585Z,95335
2022-08-27T07:33:33.222Z,95334
2022-08-27T07:34:41.891Z,95334
2022-08-27T07:35:50.560Z,95335
2022-08-27T07:37:00.218Z,95335
2022-08-27T07:38:07.945Z,95338
2022-08-27T07:39:16.610Z,95342
2022-08-27T07:40:26.325Z,95342
2022-08-27T07:41:33.988Z,95342
2022-08-27T07:42:42.611Z,95341
2022-08-27T07:43:53.121Z,95343
2022-08-27T07:45:01.005Z,95350
2022-08-27T07:46:10.691Z,95343
2022-08-27T07:47:20.309Z,95345
2022-08-27T07:48:29.984Z,95350
2022-08-27T07:49:39.635Z,95351
2022-08-27T07:50:48.519Z,95352
2022-08-27T07:51:58.192Z,95347
2022-08-27T07:53:05.858Z,95354
2022-08-27T07:54:15.516Z,95349
2022-08-27T07:55:24.259Z,95351
2022-08-27T07:56:32.970Z,95349
2022-08-27T07:57:42.672Z,95348
2022-08-27T07:58:51.382Z,95354
2022-08-27T08:00:00.039Z,95354
2022-08-27T08:01:09.783Z,95353
2022-08-27T08:02:18.449Z,95353
2022-08-27T08:03:27.083Z,95355
2022-08-27T08:04:36.777Z,95356
2022-08-27T08:05:46.419Z,95363
2022-08-27T08:06:56.071Z,95359
2022-08-27T08:08:04.777Z,95365
2022-08-27T08:09:13.447Z,95369
2022-08-27T08:10:23.130Z,95367
2022-08-27T08:11:30.784Z,95366
2022-08-27T08:12:40.451Z,95364
2022-08-27T08:13:49.155Z,95365
2022-08-27T08:14:57.841Z,95363
2022-08-27T08:16:07.514Z,95368
2022-08-27T08:17:16.250Z,95364
2022-08-27T08:18:24.868Z,95358
2022-08-27T08:19:34.570Z,95360
2022-08-27T08:20:57.394Z,95365
2022-08-27T08:21:57.281Z,95365
2022-08-27T08:23:04.488Z,95364
2022-08-27T08:24:14.173Z,95361
2022-08-27T08:25:23.856Z,95367
2022-08-27T08:26:33.519Z,95368
2022-08-27T08:27:43.195Z,95369
2022-08-27T08:28:52.873Z,95370
2022-08-27T08:30:01.538Z,95372
2022-08-27T08:31:10.448Z,95373
2022-08-27T08:32:19.038Z,95366
2022-08-27T08:33:28.708Z,95377
2022-08-27T08:34:38.414Z,95378
2022-08-27T08:35:47.085Z,95378
2022-08-27T08:36:55.777Z,95379
2022-08-27T08:38:05.456Z,95378
2022-08-27T08:39:13.090Z,95379
2022-08-27T08:40:21.892Z,95379
2022-08-27T08:41:31.450Z,95377
2022-08-27T08:42:40.138Z,95377
2022-08-27T08:43:50.781Z,95383
2022-08-27T08:44:59.433Z,95388
2022-08-27T08:46:08.176Z,95377
2022-08-27T08:47:17.749Z,95377
2022-08-27T08:48:26.431Z,95373
2022-08-27T08:49:35.092Z,95377
2022-08-27T08:50:43.754Z,95374
2022-08-27T08:51:52.393Z,95374
2022-08-27T08:53:02.068Z,95374
2022-08-27T08:54:10.890Z,95374
2022-08-27T08:55:20.550Z,95378
2022-08-27T08:56:30.216Z,95380
2022-08-27T08:57:38.880Z,95374
2022-08-27T08:58:48.546Z,95372
2022-08-27T08:59:58.224Z,95374
2022-08-27T09:01:06.947Z,95371
2022-08-27T09:02:16.556Z,95366
2022-08-27T09:03:25.237Z,95371
2022-08-27T09:04:34.907Z,95371
2022-08-27T09:05:44.608Z,95377
2022-08-27T09:06:53.275Z,95374
2022-08-27T09:08:21.560Z,95378
2022-08-27T09:09:13.570Z,95374
2022-08-27T09:10:23.218Z,95379
2022-08-27T09:11:32.934Z,95380
2022-08-27T09:12:41.590Z,95379
2022-08-27T09:13:51.286Z,95380
2022-08-27T09:15:01.019Z,95378
2022-08-27T09:16:10.697Z,95377
2022-08-27T09:17:19.373Z,95382
2022-08-27T09:18:29.030Z,95385
2022-08-27T09:19:38.690Z,95379
2022-08-27T09:20:48.453Z,95378
2022-08-27T09:21:56.034Z,95378
2022-08-27T09:23:05.728Z,95378
2022-08-27T09:24:15.385Z,95375
2022-08-27T09:25:23.043Z,95378
2022-08-27T09:26:31.696Z,95378
2022-08-27T09:27:40.345Z,95379
2022-08-27T09:28:49.028Z,95382
2022-08-27T09:29:58.680Z,95379
2022-08-27T09:31:07.408Z,95383
2022-08-27T09:32:15.996Z,95379
2022-08-27T09:33:25.655Z,95383
2022-08-27T09:34:36.447Z,95378
2022-08-27T09:35:45.126Z,95379
2022-08-27T09:36:54.790Z,95380
2022-08-27T09:38:04.486Z,95381
2022-08-27T09:39:14.135Z,95381
2022-08-27T09:40:22.872Z,95385
2022-08-27T09:41:30.493Z,95382
2022-08-27T09:42:40.169Z,95383
2022-08-27T09:43:50.815Z,95384
2022-08-27T09:44:59.502Z,95384
2022-08-27T09:46:08.243Z,95378
2022-08-27T09:47:16.854Z,95379
2022-08-27T09:48:26.517Z,95374
2022-08-27T09:49:35.176Z,95374
2022-08-27T09:50:44.863Z,95378
2022-08-27T09:51:53.549Z,95378
2022-08-27T09:53:02.210Z,95373
2022-08-27T09:54:11.872Z,95375
2022-08-27T09:55:19.519Z,95378
2022-08-27T09:56:28.186Z,95376
2022-08-27T09:57:38.062Z,95376
2022-08-27T09:58:47.734Z,95374
2022-08-27T09:59:57.406Z,95372
2022-08-27T10:01:05.116Z,95371
2022-08-27T10:02:14.719Z,95367
2022-08-27T10:03:24.404Z,95367
2022-08-27T10:04:35.017Z,95366
2022-08-27T10:05:44.642Z,95369
2022-08-27T10:06:53.302Z,95358
2022-08-27T10:08:01.951Z,95358
2022-08-27T10:09:11.650Z,95363
2022-08-27T10:10:20.305Z,95357
2022-08-27T10:11:28.991Z,95361
2022-08-27T10:12:38.659Z,95354
2022-08-27T10:13:46.331Z,95359
2022-08-27T10:14:56.029Z,95356
2022-08-27T10:16:05.779Z,95359
2022-08-27T10:17:14.381Z,95357
2022-08-27T10:18:24.066Z,95357
2022-08-27T10:19:31.731Z,95353
2022-08-27T10:20:41.411Z,95358
2022-08-27T10:21:51.103Z,95364
2022-08-27T10:23:00.775Z,95355
2022-08-27T10:24:08.435Z,95353
2022-08-27T10:25:16.093Z,95352
2022-08-27T10:26:25.779Z,95360
2022-08-27T10:27:36.415Z,95355
2022-08-27T10:28:45.076Z,95357
2022-08-27T10:29:54.576Z,95358
2022-08-27T10:31:03.415Z,95355
2022-08-27T10:32:12.082Z,95359
2022-08-27T10:33:23.606Z,95357
2022-08-27T10:34:31.411Z,95360
2022-08-27T10:35:48.229Z,95361
2022-08-27T10:36:51.667Z,95357
2022-08-27T10:38:00.448Z,95358
2022-08-27T10:39:10.103Z,95360
2022-08-27T10:40:19.864Z,95360
2022-08-27T10:41:27.430Z,95353
2022-08-27T10:42:36.111Z,95353
2022-08-27T10:43:45.819Z,95351
2022-08-27T10:44:54.482Z,95351
2022-08-27T10:46:04.201Z,95357
2022-08-27T10:47:12.820Z,95352
2022-08-27T10:48:21.551Z,95356
2022-08-27T10:49:31.243Z,95355
2022-08-27T10:50:39.920Z,95351
2022-08-27T10:51:48.590Z,95348
2022-08-27T10:52:57.249Z,95343
2022-08-27T10:54:05.890Z,95338
2022-08-27T10:55:16.618Z,95341
2022-08-27T10:56:26.384Z,95340
2022-08-27T10:57:54.215Z,95337
2022-08-27T10:58:46.645Z,95340
2022-08-27T10:59:54.341Z,95340
2022-08-27T11:01:04.208Z,95336
2022-08-27T11:02:12.929Z,95333
2022-08-27T11:03:21.612Z,95334
2022-08-27T11:04:32.269Z,95331
2022-08-27T11:05:41.975Z,95338
2022-08-27T11:06:51.667Z,95334
2022-08-27T11:08:01.340Z,95336
2022-08-27T11:09:11.004Z,95332
2022-08-27T11:10:21.000Z,95330
2022-08-27T11:12:10.212Z,95325
2022-08-27T11:12:39.980Z,95324
2022-08-27T11:13:49.640Z,95327
2022-08-27T11:14:59.312Z,95320
2022-08-27T11:16:08.029Z,95317
2022-08-27T11:17:17.651Z,95322
2022-08-27T11:18:26.347Z,95318
2022-08-27T11:19:35.007Z,95323
2022-08-27T11:20:43.667Z,95324
2022-08-27T11:21:52.327Z,95326
2022-08-27T11:23:01.987Z,95327
2022-08-27T11:24:09.685Z,95325
2022-08-27T11:25:18.348Z,95325
2022-08-27T11:26:28.018Z,95326
2022-08-27T11:27:36.700Z,95330
2022-08-27T11:28:46.345Z,95327
2022-08-27T11:29:55.787Z,95325
2022-08-27T11:31:04.747Z,95325
2022-08-27T11:32:14.354Z,95323
2022-08-27T11:33:22.013Z,95324
2022-08-27T11:34:30.723Z,95324
2022-08-27T11:35:40.400Z,95320
2022-08-27T11:36:53.249Z,95317
2022-08-27T11:37:56.713Z,95317
2022-08-27T11:39:07.416Z,95317
2022-08-27T11:40:17.115Z,95312
2022-08-27T11:41:26.782Z,95313
2022-08-27T11:42:36.441Z,95311
2022-08-27T11:43:46.119Z,95314
2022-08-27T11:44:53.778Z,95313
2022-08-27T11:46:02.412Z,95318
2022-08-27T11:47:11.161Z,95314
2022-08-27T11:48:18.784Z,95310
2022-08-27T11:49:27.437Z,95313
2022-08-27T11:50:36.092Z,95313
2022-08-27T11:51:45.754Z,95316
2022-08-27T11:52:55.451Z,95315
2022-08-27T11:54:03.110Z,95318
2022-08-27T11:55:11.752Z,95317
2022-08-27T11:56:21.422Z,95316
2022-08-27T11:57:29.081Z,95316
2022-08-27T11:58:52.354Z,95315
2022-08-27T11:59:49.419Z,95314
2022-08-27T12:01:00.966Z,95316
2022-08-27T12:02:07.724Z,95311
2022-08-27T12:03:15.453Z,95311
2022-08-27T12:04:24.301Z,95306
2022-08-27T12:05:33.937Z,95304
2022-08-27T12:06:42.605Z,95301
2022-08-27T12:07:51.294Z,95302
2022-08-27T12:09:00.967Z,95298
2022-08-27T12:10:10.644Z,95295
2022-08-27T12:11:20.340Z,95295
2022-08-27T12:12:28.979Z,95295
2022-08-27T12:13:37.644Z,95294
2022-08-27T12:14:47.323Z,95293
2022-08-27T12:15:57.022Z,95294
2022-08-27T12:17:05.660Z,95289
2022-08-27T12:18:14.337Z,95290
2022-08-27T12:19:23.016Z,95287
2022-08-27T12:20:32.678Z,95286
2022-08-27T12:21:42.352Z,95286
2022-08-27T12:22:49.997Z,95285
2022-08-27T12:23:59.664Z,95282
2022-08-27T12:25:08.340Z,95289
2022-08-27T12:26:17.037Z,95282
2022-08-27T12:27:25.831Z,95283
2022-08-27T12:28:35.488Z,95280
2022-08-27T12:29:45.155Z,95285
2022-08-27T12:30:52.795Z,95279
2022-08-27T12:32:02.510Z,95274
2022-08-27T12:33:12.166Z,95275
2022-08-27T12:34:19.825Z,95278
2022-08-27T12:35:29.493Z,95273
2022-08-27T12:36:38.163Z,95264
2022-08-27T12:37:46.845Z,95268
2022-08-27T12:38:57.509Z,95267
2022-08-27T12:40:07.302Z,95270
2022-08-27T12:41:19.587Z,95265
2022-08-27T12:42:26.524Z,95257
2022-08-27T12:43:33.205Z,95262
2022-08-27T12:44:41.952Z,95262
2022-08-27T12:45:50.626Z,95262
2022-08-27T12:46:59.372Z,95264
2022-08-27T12:48:09.058Z,95263
2022-08-27T12:49:36.196Z,95267
2022-08-27T12:50:27.280Z,95266
2022-08-27T12:51:36.966Z,95268
2022-08-27T12:52:46.645Z,95269
2022-08-27T12:53:56.312Z,95263
2022-08-27T12:55:04.990Z,95268
2022-08-27T12:56:13.663Z,95264
2022-08-27T12:57:23.335Z,95265
2022-08-27T12:58:31.997Z,95269
2022-08-27T12:59:40.655Z,95262
2022-08-27T13:00:50.428Z,95266
2022-08-27T13:01:58.112Z,95261
2022-08-27T13:03:07.700Z,95270
2022-08-27T13:04:15.403Z,95264
2022-08-27T13:05:24.053Z,95267
2022-08-27T13:06:32.721Z,95260
2022-08-27T13:07:41.622Z,95263
2022-08-27T13:08:51.273Z,95258
2022-08-27T13:10:00.961Z,95260
2022-08-27T13:11:12.307Z,95259
2022-08-27T13:12:18.269Z,95256
2022-08-27T13:13:26.970Z,95255
2022-08-27T13:14:37.620Z,95256
2022-08-27T13:15:48.342Z,95253
2022-08-27T13:16:55.993Z,95246
2022-08-27T13:18:04.731Z,95246
2022-08-27T13:19:14.346Z,95247
2022-08-27T13:20:22.003Z,95244
2022-08-27T13:21:31.673Z,95242
2022-08-27T13:22:41.323Z,95245
2022-08-27T13:23:50.968Z,95241
2022-08-27T13:25:00.653Z,95245
2022-08-27T13:26:07.312Z,95246
2022-08-27T13:27:16.964Z,95239
2022-08-27T13:28:25.645Z,95241
2022-08-27T13:29:34.309Z,95245
2022-08-27T13:30:43.008Z,95239
2022-08-27T13:31:51.740Z,95244
2022-08-27T13:33:00.340Z,95241
2022-08-27T13:34:08.997Z,95239
2022-08-27T13:35:16.638Z,95233
2022-08-27T13:36:25.337Z,95236
2022-08-27T13:37:34.985Z,95235
2022-08-27T13:38:45.539Z,95236
2022-08-27T13:39:53.331Z,95241
2022-08-27T13:41:00.958Z,95240
2022-08-27T13:42:09.636Z,95235
2022-08-27T13:43:20.266Z,95234
2022-08-27T13:44:30.941Z,95243
2022-08-27T13:45:40.619Z,95241
2022-08-27T13:46:48.308Z,95253
2022-08-27T13:47:57.099Z,95252
2022-08-27T13:49:06.780Z,95251
2022-08-27T13:50:14.417Z,95249
2022-08-27T13:51:24.106Z,95250
2022-08-27T13:52:32.778Z,95250
2022-08-27T13:53:41.446Z,95247
2022-08-27T13:54:51.111Z,95244
2022-08-27T13:55:59.779Z,95249
2022-08-27T13:57:09.438Z,95242
2022-08-27T13:58:19.100Z,95247
2022-08-27T13:59:27.790Z,95245
2022-08-27T14:00:36.427Z,95243
2022-08-27T14:01:46.169Z,95245
2022-08-27T14:02:56.622Z,95257
2022-08-27T14:04:05.635Z,95257
2022-08-27T14:05:15.114Z,95252
2022-08-27T14:06:24.832Z,95256
2022-08-27T14:07:35.512Z,95250
2022-08-27T14:08:43.169Z,95254
2022-08-27T14:09:54.005Z,95259
2022-08-27T14:11:02.526Z,95256
2022-08-27T14:12:12.181Z,95257
2022-08-27T14:13:21.850Z,95257
2022-08-27T14:14:30.616Z,95264
2022-08-27T14:15:39.295Z,95258
2022-08-27T14:16:48.953Z,95263
2022-08-27T14:17:56.595Z,95263
2022-08-27T14:19:05.337Z,95261
2022-08-27T14:20:15.027Z,95263
2022-08-27T14:21:24.670Z,95255
2022-08-27T14:22:34.393Z,95269
2022-08-27T14:23:42.035Z,95260
2022-08-27T14:24:50.688Z,95259
2022-08-27T14:26:00.354Z,95256
2022-08-27T14:27:08.007Z,95253
2022-08-27T14:28:17.684Z,95254
2022-08-27T14:29:26.339Z,95255
2022-08-27T14:30:36.019Z,95254
2022-08-27T14:31:45.740Z,95253
2022-08-27T14:32:56.269Z,95249
2022-08-27T14:34:04.039Z,95252
2022-08-27T14:35:14.730Z,95247
2022-08-27T14:36:25.384Z,95249
2022-08-27T14:37:34.049Z,95247
2022-08-27T14:38:43.738Z,95251
2022-08-27T14:39:53.520Z,95249
2022-08-27T14:41:01.125Z,95248
2022-08-27T14:42:09.827Z,95243
2022-08-27T14:43:18.529Z,95245
2022-08-27T14:44:27.192Z,95244
2022-08-27T14:45:37.873Z,95245
2022-08-27T14:46:46.565Z,95242
2022-08-27T14:47:56.256Z,95243
2022-08-27T14:49:05.851Z,95244